createdAt,value
2023-05-01T00:02:24.300Z,28.10
2023-05-01T00:04:52.591Z,28.10
2023-05-01T00:07:20.991Z,28.00
2023-05-01T00:09:49.188Z,28.00
2023-05-01T00:12:17.585Z,28.00
2023-05-01T00:14:45.833Z,28.00
2023-05-01T00:17:13.859Z,28.00
2023-05-01T00:19:42.158Z,28.00
2023-05-01T00:22:10.634Z,27.90
2023-05-01T00:24:38.960Z,27.80
2023-05-01T00:27:07.084Z,27.80
2023-05-01T00:29:35.398Z,27.80
2023-05-01T00:32:03.626Z,27.70
2023-05-01T00:34:31.839Z,27.70
2023-05-01T00:37:00.350Z,27.70
2023-05-01T00:39:28.403Z,27.70
2023-05-01T00:41:56.549Z,27.70
2023-05-01T00:44:25.061Z,27.70
2023-05-01T00:46:53.192Z,27.70
2023-05-01T00:49:21.757Z,27.70
2023-05-01T00:51:51.955Z,27.70
2023-05-01T00:54:20.796Z,27.70
2023-05-01T00:56:49.343Z,27.70
2023-05-01T00:59:18.356Z,27.70
2023-05-01T01:01:47.045Z,27.70
2023-05-01T01:04:15.340Z,27.70
2023-05-01T01:07:07.910Z,27.70
2023-05-01T01:09:38.950Z,27.60
2023-05-01T01:12:51.750Z,27.60
2023-05-01T01:15:24.566Z,27.60
2023-05-01T01:18:20.726Z,27.60
2023-05-01T01:21:04.304Z,27.60
2023-05-01T01:23:56.430Z,27.60
2023-05-01T01:26:58.342Z,27.50
2023-05-01T01:29:59.303Z,27.50
2023-05-01T01:33:01.151Z,27.40
2023-05-01T01:35:30.410Z,27.40
2023-05-01T01:38:07.202Z,27.40
2023-05-01T01:40:45.685Z,27.30
2023-05-01T01:43:17.655Z,27.30
2023-05-01T01:45:50.666Z,27.30
2023-05-01T01:48:25.914Z,27.20
2023-05-01T01:50:57.116Z,27.20
2023-05-01T01:53:27.264Z,27.10
2023-05-01T01:55:56.934Z,27.10
2023-05-01T01:58:26.860Z,27.00
2023-05-01T02:01:00.596Z,27.00
2023-05-01T02:03:29.847Z,26.80
2023-05-01T02:06:00.748Z,26.60
2023-05-01T02:08:31.847Z,26.60
2023-05-01T02:11:02.213Z,26.50
2023-05-01T02:13:33.303Z,26.40
2023-05-01T02:16:03.923Z,26.40
2023-05-01T02:18:32.881Z,26.30
2023-05-01T02:21:02.521Z,26.30
2023-05-01T02:23:32.524Z,26.30
2023-05-01T02:26:03.524Z,26.30
2023-05-01T02:28:32.648Z,26.30
2023-05-01T02:31:00.865Z,26.30
2023-05-01T02:33:29.238Z,26.40
2023-05-01T02:35:57.390Z,26.30
2023-05-01T02:38:25.834Z,26.10
2023-05-01T02:40:58.083Z,26.00
2023-05-01T02:43:29.389Z,25.90
2023-05-01T02:45:58.885Z,25.90
2023-05-01T02:48:29.113Z,25.90
2023-05-01T02:50:58.946Z,25.90
2023-05-01T02:53:27.161Z,26.00
2023-05-01T02:56:04.634Z,26.00
2023-05-01T02:58:33.151Z,25.80
2023-05-01T03:01:01.510Z,25.80
2023-05-01T03:03:29.837Z,25.80
2023-05-01T03:05:57.960Z,25.80
2023-05-01T03:08:26.274Z,25.90
2023-05-01T03:10:54.462Z,26.00
2023-05-01T03:13:22.624Z,25.90
2023-05-01T03:15:50.842Z,25.90
2023-05-01T03:18:19.008Z,25.90
2023-05-01T03:20:54.183Z,25.80
2023-05-01T03:23:23.128Z,25.80
2023-05-01T03:25:52.108Z,25.70
2023-05-01T03:28:20.291Z,25.60
2023-05-01T03:30:49.017Z,25.50
2023-05-01T03:33:17.366Z,25.50
2023-05-01T03:35:45.884Z,25.50
2023-05-01T03:38:14.828Z,25.60
2023-05-01T03:41:14.955Z,25.70
2023-05-01T03:44:06.313Z,25.70
2023-05-01T03:46:39.433Z,25.60
2023-05-01T03:49:10.324Z,25.60
2023-05-01T03:51:47.339Z,25.60
2023-05-01T03:54:15.692Z,25.60
2023-05-01T03:57:01.119Z,25.70
2023-05-01T03:59:29.343Z,25.70
2023-05-01T04:01:57.726Z,25.80
2023-05-01T04:04:28.364Z,25.80
2023-05-01T04:06:58.861Z,25.90
2023-05-01T04:09:27.007Z,25.90
2023-05-01T04:11:55.095Z,25.90
2023-05-01T04:14:23.418Z,26.00
2023-05-01T04:16:51.793Z,26.00
2023-05-01T04:19:19.996Z,26.00
2023-05-01T04:21:53.350Z,26.00
2023-05-01T04:24:21.730Z,25.90
2023-05-01T04:26:49.913Z,25.90
2023-05-01T04:29:17.979Z,25.80
2023-05-01T04:31:46.747Z,25.70
2023-05-01T04:34:15.015Z,25.70
2023-05-01T04:36:43.204Z,25.80
2023-05-01T04:39:11.527Z,25.80
2023-05-01T04:41:40.136Z,25.80
2023-05-01T04:44:08.386Z,25.80
2023-05-01T04:46:36.588Z,25.70
2023-05-01T04:49:05.345Z,25.80
2023-05-01T04:51:33.431Z,25.80
2023-05-01T04:54:01.993Z,25.80
2023-05-01T04:56:30.323Z,25.80
2023-05-01T04:59:01.737Z,25.80
2023-05-01T05:01:32.159Z,25.80
2023-05-01T05:04:00.691Z,25.80
2023-05-01T05:06:30.869Z,25.90
2023-05-01T05:08:59.746Z,25.80
2023-05-01T05:11:27.865Z,25.90
2023-05-01T05:14:05.371Z,25.80
2023-05-01T05:16:33.720Z,25.80
2023-05-01T05:19:02.462Z,25.90
2023-05-01T05:21:34.286Z,25.90
2023-05-01T05:24:04.228Z,25.90
2023-05-01T05:26:33.373Z,25.80
2023-05-01T05:29:04.596Z,25.80
2023-05-01T05:31:33.352Z,25.80
2023-05-01T05:34:01.647Z,25.80
2023-05-01T05:40:06.926Z,25.70
2023-05-01T05:42:45.507Z,25.70
2023-05-01T05:45:13.968Z,25.70
2023-05-01T05:47:42.145Z,25.70
2023-05-01T05:50:11.644Z,25.80
2023-05-01T05:52:40.738Z,25.70
2023-05-01T05:55:09.850Z,25.80
2023-05-01T05:57:38.590Z,25.80
2023-05-01T06:00:08.979Z,25.80
2023-05-01T06:02:49.907Z,25.80
2023-05-01T06:05:20.251Z,25.80
2023-05-01T06:07:48.422Z,25.80
2023-05-01T06:10:16.577Z,25.80
2023-05-01T06:12:45.706Z,25.80
2023-05-01T06:15:17.351Z,25.70
2023-05-01T06:17:52.443Z,25.80
2023-05-01T06:20:20.889Z,25.70
2023-05-01T06:22:51.330Z,25.70
2023-05-01T06:25:24.779Z,25.70
2023-05-01T06:27:53.255Z,25.70
2023-05-01T06:30:23.796Z,25.70
2023-05-01T06:32:52.121Z,25.60
2023-05-01T06:35:21.307Z,25.70
2023-05-01T06:37:49.623Z,25.70
2023-05-01T06:40:18.136Z,25.70
2023-05-01T06:42:46.553Z,25.70
2023-05-01T06:45:14.797Z,25.80
2023-05-01T06:47:43.143Z,25.80
2023-05-01T06:50:11.794Z,25.70
2023-05-01T06:52:40.798Z,25.80
2023-05-01T06:55:09.457Z,25.70
2023-05-01T06:57:37.693Z,25.70
2023-05-01T07:00:06.921Z,25.70
2023-05-01T07:02:35.392Z,25.70
2023-05-01T07:05:03.558Z,25.70
2023-05-01T07:07:31.911Z,25.70
2023-05-01T07:10:00.593Z,25.70
2023-05-01T07:12:29.922Z,25.70
2023-05-01T07:14:58.202Z,25.70
2023-05-01T07:17:26.717Z,25.70
2023-05-01T07:19:55.185Z,25.70
2023-05-01T07:22:23.512Z,25.70
2023-05-01T07:24:51.793Z,25.70
2023-05-01T07:27:19.845Z,25.70
2023-05-01T07:29:48.036Z,25.70
2023-05-01T07:32:16.393Z,25.70
2023-05-01T07:34:44.716Z,25.80
2023-05-01T07:37:12.936Z,25.70
2023-05-01T07:39:41.609Z,25.70
2023-05-01T07:42:10.026Z,25.70
2023-05-01T07:44:38.166Z,25.70
2023-05-01T07:47:06.933Z,25.70
2023-05-01T07:49:38.849Z,25.80
2023-05-01T07:52:08.205Z,25.80
2023-05-01T07:54:36.542Z,25.80
2023-05-01T07:57:07.302Z,25.80
2023-05-01T07:59:35.576Z,25.80
2023-05-01T08:02:03.709Z,25.90
2023-05-01T08:04:32.058Z,25.80
2023-05-01T08:07:00.742Z,25.80
2023-05-01T08:09:28.955Z,25.90
2023-05-01T08:11:57.173Z,25.90
2023-05-01T08:14:25.334Z,25.90
2023-05-01T08:16:53.483Z,25.90
2023-05-01T08:19:22.220Z,25.90
2023-05-01T08:21:50.512Z,25.90
2023-05-01T08:24:18.701Z,25.90
2023-05-01T08:26:47.261Z,25.90
2023-05-01T08:29:15.463Z,25.90
2023-05-01T08:31:43.739Z,25.90
2023-05-01T08:34:12.032Z,25.90
2023-05-01T08:36:40.345Z,25.90
2023-05-01T08:39:08.475Z,25.90
2023-05-01T08:41:38.228Z,25.80
2023-05-01T08:44:10.611Z,25.90
2023-05-01T08:46:47.134Z,25.90
2023-05-01T08:49:17.920Z,25.90
2023-05-01T08:51:47.785Z,25.90
2023-05-01T08:54:17.144Z,26.00
2023-05-01T08:56:52.166Z,26.00
2023-05-01T08:59:24.067Z,26.10
2023-05-01T09:01:52.838Z,26.10
2023-05-01T09:04:21.508Z,26.20
2023-05-01T09:06:50.793Z,26.20
2023-05-01T09:09:19.126Z,26.30
2023-05-01T09:11:47.479Z,26.30
2023-05-01T09:14:15.659Z,26.30
2023-05-01T09:16:43.937Z,26.40
2023-05-01T09:19:12.288Z,26.30
2023-05-01T09:21:40.747Z,26.40
2023-05-01T09:24:08.905Z,26.50
2023-05-01T09:26:40.975Z,26.50
2023-05-01T09:29:09.088Z,26.60
2023-05-01T09:31:37.906Z,26.60
2023-05-01T09:34:06.935Z,26.60
2023-05-01T09:36:36.325Z,26.70
2023-05-01T09:39:04.994Z,26.70
2023-05-01T09:41:33.269Z,26.80
2023-05-01T09:44:01.581Z,26.80
2023-05-01T09:46:41.301Z,26.80
2023-05-01T09:49:09.669Z,26.90
2023-05-01T09:51:37.756Z,26.90
2023-05-01T09:54:17.622Z,26.90
2023-05-01T09:56:49.685Z,27.00
2023-05-01T09:59:18.976Z,27.00
2023-05-01T10:01:48.134Z,27.10
2023-05-01T10:04:16.557Z,27.10
2023-05-01T10:06:44.956Z,27.10
2023-05-01T10:09:26.975Z,27.10
2023-05-01T10:11:56.997Z,27.10
2023-05-01T10:14:25.094Z,27.10
2023-05-01T10:16:53.681Z,27.10
2023-05-01T10:19:22.282Z,27.20
2023-05-01T10:21:50.502Z,27.20
2023-05-01T10:24:18.901Z,27.30
2023-05-01T10:26:49.709Z,27.30
2023-05-01T10:29:21.164Z,27.40
2023-05-01T10:31:49.440Z,27.30
2023-05-01T10:34:20.449Z,27.40
2023-05-01T10:37:01.521Z,27.40
2023-05-01T10:39:37.247Z,27.50
2023-05-01T10:42:10.074Z,27.60
2023-05-01T10:44:38.738Z,27.70
2023-05-01T10:47:25.534Z,27.70
2023-05-01T10:50:15.384Z,27.80
2023-05-01T10:53:11.270Z,27.90
2023-05-01T10:55:44.283Z,27.90
2023-05-01T10:58:13.229Z,28.00
2023-05-01T11:00:42.065Z,28.10
2023-05-01T11:03:22.054Z,28.10
2023-05-01T11:06:03.678Z,28.30
2023-05-01T11:08:37.452Z,28.40
2023-05-01T11:11:20.715Z,28.40
2023-05-01T11:14:07.789Z,28.40
2023-05-01T11:16:39.075Z,28.50
2023-05-01T11:19:46.062Z,28.60
2023-05-01T11:22:14.287Z,28.70
2023-05-01T11:24:42.720Z,28.70
2023-05-01T11:27:14.698Z,28.70
2023-05-01T11:29:45.915Z,28.70
2023-05-01T11:32:19.565Z,28.70
2023-05-01T11:34:49.045Z,28.80
2023-05-01T11:37:17.478Z,28.90
2023-05-01T11:39:52.942Z,29.00
2023-05-01T11:42:22.129Z,29.00
2023-05-01T11:45:11.260Z,29.10
2023-05-01T11:47:40.098Z,29.30
2023-05-01T11:50:09.880Z,29.20
2023-05-01T11:52:44.147Z,29.20
2023-05-01T11:55:12.346Z,29.20
2023-05-01T11:57:47.854Z,29.30
2023-05-01T12:00:17.704Z,29.30
2023-05-01T12:03:10.324Z,29.30
2023-05-01T12:05:40.664Z,29.40
2023-05-01T12:08:16.683Z,29.40
2023-05-01T12:10:47.029Z,29.50
2023-05-01T12:13:16.882Z,29.50
2023-05-01T12:15:51.359Z,29.40
2023-05-01T12:18:20.431Z,29.40
2023-05-01T12:20:53.013Z,29.40
2023-05-01T12:23:32.320Z,29.50
2023-05-01T12:26:00.669Z,29.40
2023-05-01T12:28:29.575Z,29.50
2023-05-01T12:31:04.827Z,29.50
2023-05-01T12:33:33.475Z,29.70
2023-05-01T12:36:11.444Z,29.60
2023-05-01T12:38:39.703Z,29.70
2023-05-01T12:41:08.152Z,29.80
2023-05-01T12:43:37.936Z,29.80
2023-05-01T12:46:06.905Z,29.80
2023-05-01T12:48:40.549Z,29.80
2023-05-01T12:51:09.046Z,29.80
2023-05-01T12:53:45.015Z,29.90
2023-05-01T12:56:23.187Z,30.00
2023-05-01T12:58:52.713Z,30.10
2023-05-01T13:01:28.435Z,30.10
2023-05-01T13:03:56.939Z,30.20
2023-05-01T13:06:33.440Z,30.30
2023-05-01T13:09:10.795Z,30.10
2023-05-01T13:11:39.454Z,30.20
2023-05-01T13:14:11.248Z,30.20
2023-05-01T13:16:47.611Z,30.20
2023-05-01T13:19:28.977Z,30.10
2023-05-01T13:21:58.320Z,30.10
2023-05-01T13:24:43.304Z,30.10
2023-05-01T13:27:13.135Z,30.00
2023-05-01T13:29:41.890Z,29.90
2023-05-01T13:32:12.335Z,29.80
2023-05-01T13:34:43.978Z,30.00
2023-05-01T13:37:12.532Z,29.90
2023-05-01T13:39:45.031Z,29.90
2023-05-01T13:42:13.916Z,29.80
2023-05-01T13:44:52.430Z,29.90
2023-05-01T13:47:21.062Z,29.90
2023-05-01T13:49:49.104Z,30.00
2023-05-01T13:52:19.050Z,29.90
2023-05-01T13:54:48.358Z,30.00
2023-05-01T13:57:17.098Z,29.90
2023-05-01T13:59:48.358Z,29.90
2023-05-01T14:02:30.283Z,29.90
2023-05-01T14:05:00.177Z,30.00
2023-05-01T14:07:29.472Z,30.00
2023-05-01T14:09:59.615Z,30.00
2023-05-01T14:12:31.099Z,30.20
2023-05-01T14:15:00.590Z,30.30
2023-05-01T14:17:34.130Z,30.40
2023-05-01T14:20:03.086Z,30.40
2023-05-01T14:22:43.742Z,30.30
2023-05-01T14:25:35.029Z,30.40
2023-05-01T14:28:06.816Z,30.50
2023-05-01T14:30:37.008Z,30.40
2023-05-01T14:33:13.832Z,30.50
2023-05-01T14:35:53.848Z,30.60
2023-05-01T14:38:22.976Z,30.50
2023-05-01T14:40:51.366Z,30.50
2023-05-01T14:43:21.144Z,30.50
2023-05-01T14:45:49.766Z,30.30
2023-05-01T14:48:23.225Z,30.20
2023-05-01T14:50:52.878Z,30.20
2023-05-01T14:53:21.286Z,30.20
2023-05-01T14:55:52.045Z,30.20
2023-05-01T14:58:20.421Z,30.30
2023-05-01T15:00:48.866Z,30.20
2023-05-01T15:03:17.266Z,30.20
2023-05-01T15:05:45.539Z,30.10
2023-05-01T15:08:14.025Z,29.90
2023-05-01T15:10:42.266Z,30.00
2023-05-01T15:13:10.511Z,30.00
2023-05-01T15:15:38.918Z,29.70
2023-05-01T15:18:07.331Z,29.70
2023-05-01T15:20:35.602Z,29.80
2023-05-01T15:23:03.885Z,29.90
2023-05-01T15:25:32.066Z,29.90
2023-05-01T15:28:00.233Z,29.90
2023-05-01T15:30:28.529Z,30.00
2023-05-01T15:32:57.300Z,30.10
2023-05-01T15:35:27.282Z,30.20
2023-05-01T15:37:55.483Z,30.20
2023-05-01T15:40:23.817Z,30.30
2023-05-01T15:42:51.910Z,30.40
2023-05-01T15:45:20.277Z,30.50
2023-05-01T15:47:48.499Z,30.50
2023-05-01T15:50:16.700Z,30.70
2023-05-01T15:52:45.027Z,30.80
2023-05-01T15:55:13.659Z,31.00
2023-05-01T15:57:41.923Z,31.10
2023-05-01T16:00:10.458Z,31.20
2023-05-01T16:02:38.709Z,31.50
2023-05-01T16:05:07.476Z,31.80
2023-05-01T16:07:35.738Z,32.00
2023-05-01T16:10:04.959Z,32.10
2023-05-01T16:12:33.343Z,32.60
2023-05-01T16:15:07.992Z,32.90
2023-05-01T16:17:44.237Z,33.30
2023-05-01T16:20:14.655Z,33.40
2023-05-01T16:22:43.952Z,33.80
2023-05-01T16:25:13.135Z,34.00
2023-05-01T16:27:45.000Z,34.10
2023-05-01T16:30:14.125Z,34.10
2023-05-01T16:32:43.275Z,34.20
2023-05-01T16:35:12.295Z,34.60
2023-05-01T16:37:40.796Z,35.00
2023-05-01T16:40:09.631Z,34.90
2023-05-01T16:42:37.820Z,34.70
2023-05-01T16:45:08.708Z,35.00
2023-05-01T16:47:37.200Z,35.30
2023-05-01T16:50:09.993Z,35.60
2023-05-01T16:52:38.320Z,35.60
2023-05-01T16:55:06.941Z,35.60
2023-05-01T16:57:35.160Z,35.40
2023-05-01T17:00:03.697Z,35.40
2023-05-01T17:02:32.241Z,35.40
2023-05-01T17:05:00.487Z,35.30
2023-05-01T17:07:28.910Z,35.80
2023-05-01T17:09:57.307Z,35.90
2023-05-01T17:12:25.983Z,36.10
2023-05-01T17:14:54.125Z,36.00
2023-05-01T17:17:22.633Z,36.30
2023-05-01T17:19:51.044Z,36.20
2023-05-01T17:22:19.341Z,36.10
2023-05-01T17:24:47.388Z,35.90
2023-05-01T17:27:15.577Z,35.90
2023-05-01T17:29:43.914Z,35.60
2023-05-01T17:32:14.449Z,35.80
2023-05-01T17:34:46.424Z,35.60
2023-05-01T17:37:14.536Z,35.60
2023-05-01T17:39:42.902Z,35.70
2023-05-01T17:42:11.313Z,35.50
2023-05-01T17:44:39.500Z,35.40
2023-05-01T17:47:07.705Z,35.00
2023-05-01T17:49:36.182Z,34.70
2023-05-01T17:52:04.509Z,34.50
2023-05-01T17:54:32.747Z,34.30
2023-05-01T17:57:01.112Z,34.20
2023-05-01T17:59:29.235Z,33.80
2023-05-01T18:01:57.676Z,33.60
2023-05-01T18:04:26.174Z,33.50
2023-05-01T18:06:54.524Z,33.20
2023-05-01T18:09:23.148Z,32.80
2023-05-01T18:11:51.397Z,32.10
2023-05-01T18:14:19.612Z,32.00
2023-05-01T18:16:48.052Z,31.60
2023-05-01T18:19:16.448Z,31.40
2023-05-01T18:21:44.771Z,30.90
2023-05-01T18:24:13.084Z,30.80
2023-05-01T18:26:41.269Z,30.50
2023-05-01T18:29:09.552Z,30.40
2023-05-01T18:31:37.884Z,30.30
2023-05-01T18:34:06.553Z,30.10
2023-05-01T18:36:34.749Z,30.00
2023-05-01T18:39:03.025Z,29.90
2023-05-01T18:41:31.422Z,29.80
2023-05-01T18:43:59.503Z,29.70
2023-05-01T18:46:27.944Z,29.60
2023-05-01T18:49:02.428Z,29.60
2023-05-01T18:51:30.910Z,29.50
2023-05-01T18:53:59.053Z,29.40
2023-05-01T18:56:27.347Z,29.20
2023-05-01T18:58:55.818Z,29.20
2023-05-01T19:01:24.119Z,29.10
2023-05-01T19:03:52.318Z,29.10
2023-05-01T19:06:20.608Z,29.00
2023-05-01T19:08:49.050Z,29.00
2023-05-01T19:11:17.267Z,28.90
2023-05-01T19:13:45.500Z,28.90
2023-05-01T19:16:14.002Z,28.90
2023-05-01T19:18:42.266Z,28.80
2023-05-01T19:21:11.265Z,28.80
2023-05-01T19:23:39.522Z,28.80
2023-05-01T19:26:07.928Z,28.80
2023-05-01T19:28:38.312Z,28.70
2023-05-01T19:31:07.147Z,28.70
2023-05-01T19:33:35.473Z,28.70
2023-05-01T19:36:03.706Z,28.70
2023-05-01T19:38:32.297Z,28.60
2023-05-01T19:41:00.583Z,28.60
2023-05-01T19:43:28.777Z,28.60
2023-05-01T19:45:57.178Z,28.60
2023-05-01T19:48:25.338Z,28.60
2023-05-01T19:50:53.618Z,28.50
2023-05-01T19:53:23.362Z,28.50
2023-05-01T19:55:52.299Z,28.50
2023-05-01T19:58:20.902Z,28.50
2023-05-01T20:00:49.196Z,28.50
2023-05-01T20:03:17.756Z,28.50
2023-05-01T20:07:51.014Z,28.50
2023-05-01T20:10:19.652Z,28.50
2023-05-01T20:12:50.541Z,28.40
2023-05-01T20:15:22.257Z,28.40
2023-05-01T20:17:51.893Z,28.40
2023-05-01T20:20:23.883Z,28.40
2023-05-01T20:23:09.733Z,28.40
2023-05-01T20:25:38.155Z,28.40
2023-05-01T20:28:07.741Z,28.40
2023-05-01T20:30:41.595Z,28.30
2023-05-01T20:33:09.864Z,28.30
2023-05-01T20:35:38.510Z,28.30
2023-05-01T20:38:06.796Z,28.30
2023-05-01T20:40:36.730Z,28.30
2023-05-01T20:43:08.381Z,28.30
2023-05-01T20:45:38.288Z,28.30
2023-05-01T20:48:07.886Z,28.30
2023-05-01T20:50:37.297Z,28.30
2023-05-01T20:53:07.057Z,28.30
2023-05-01T20:55:35.265Z,28.30
2023-05-01T20:58:03.509Z,28.30
2023-05-01T21:00:31.685Z,28.30
2023-05-01T21:03:00.052Z,28.20
2023-05-01T21:05:28.742Z,28.20
2023-05-01T21:07:59.744Z,28.20
2023-05-01T21:10:28.258Z,28.20
2023-05-01T21:12:56.558Z,28.20
2023-05-01T21:15:25.063Z,28.20
2023-05-01T21:17:53.554Z,28.20
2023-05-01T21:20:32.945Z,28.10
2023-05-01T21:23:04.138Z,28.20
2023-05-01T21:25:33.642Z,28.20
2023-05-01T21:28:02.840Z,28.20
2023-05-01T21:30:33.023Z,28.20
2023-05-01T21:33:08.730Z,28.20
2023-05-01T21:35:37.016Z,28.20
2023-05-01T21:38:05.285Z,28.20
2023-05-01T21:40:46.198Z,28.10
2023-05-01T21:43:14.501Z,28.10
2023-05-01T21:45:45.938Z,28.20
2023-05-01T21:48:20.347Z,28.20
2023-05-01T21:50:51.619Z,28.20
2023-05-01T21:53:19.998Z,28.20
2023-05-01T21:55:48.145Z,28.10
2023-05-01T21:58:16.871Z,28.10
2023-05-01T22:00:46.661Z,28.10
2023-05-01T22:03:18.241Z,28.10
2023-05-01T22:05:46.833Z,28.10
2023-05-01T22:08:15.124Z,28.10
2023-05-01T22:10:43.637Z,28.00
2023-05-01T22:13:11.840Z,28.00
2023-05-01T22:15:40.113Z,28.00
2023-05-01T22:18:08.350Z,28.00
2023-05-01T22:20:36.657Z,28.00
2023-05-01T22:23:04.867Z,28.00
2023-05-01T22:25:33.073Z,28.00
2023-05-01T22:28:01.348Z,28.00
2023-05-01T22:30:29.581Z,28.00
2023-05-01T22:32:57.918Z,28.10
2023-05-01T22:35:26.225Z,28.10
2023-05-01T22:37:54.667Z,28.10
2023-05-01T22:40:22.812Z,28.10
2023-05-01T22:42:51.149Z,28.10
2023-05-01T22:45:19.595Z,28.10
2023-05-01T22:47:47.734Z,28.10
2023-05-01T22:50:16.208Z,28.10
2023-05-01T22:52:46.488Z,28.10
2023-05-01T22:55:15.046Z,28.00
2023-05-01T22:57:43.285Z,28.00
2023-05-01T23:00:13.852Z,28.00
2023-05-01T23:02:42.035Z,28.00
2023-05-01T23:05:10.519Z,28.00
2023-05-01T23:07:38.925Z,28.00
2023-05-01T23:10:07.498Z,28.00
2023-05-01T23:12:35.941Z,28.00
2023-05-01T23:15:04.141Z,27.90
2023-05-01T23:17:35.128Z,27.90
2023-05-01T23:20:06.387Z,27.90
2023-05-01T23:22:36.588Z,27.90
2023-05-01T23:25:07.055Z,27.90
2023-05-01T23:27:35.961Z,27.90
2023-05-01T23:30:06.357Z,27.90
2023-05-01T23:32:34.963Z,27.90
2023-05-01T23:35:13.258Z,27.90
2023-05-01T23:37:41.834Z,27.90
2023-05-01T23:40:10.209Z,27.90
2023-05-01T23:42:40.014Z,27.90
2023-05-01T23:45:09.087Z,27.80
2023-05-01T23:47:38.023Z,27.80
2023-05-01T23:50:07.316Z,27.90
2023-05-01T23:52:35.777Z,27.90
2023-05-01T23:55:04.006Z,27.90
2023-05-01T23:57:32.173Z,27.90
